Aérodrome :
LOGIN :

S'inscrire | Disclaimer

   EN    FR    IT 

 










Légende :    VFR   VFR Marginal   IFR   IFR Intensif   IFR Très Intensif
Visi : 
Plafond : 
>= 8 km
>= 3000ft
5 à 8 km
1000 à 3000 ft
1500m à 5 km
500 à 1000 ft
800 à 1500m
200 à 500 ft
< 800m
< 200 ft
Symboles :   Orages  Brouillard  Fortes neiges  Fortes précipitations  Vent > 20 kt
SIGMETs :   Divers  Orages  Givrage  Turbulence  Onde Orograph.  Cendres Volcan.






- Altitude de l'aérodrome : 100 ft


EBDT - Schaffen

DERNIER METAR :
  • 182055Z AUTO 21010KT 9999 -RA FEW026/// BKN032/// BKN039/// 07/03 Q1018 BLU

METARs EXPIRÉS :
  • 182025Z AUTO 21011G23KT 9999 -RA FEW027/// BKN038/// BKN049/// 08/03 Q1018 BLU
  • 181955Z AUTO 20011KT 9999 SCT041/// BKN075/// BKN140/// 07/03 Q1019 BLU
  • 181925Z AUTO 20010KT 9999 SCT120/// BKN140/// 07/03 Q1019 BLU
  • 181855Z AUTO 20010KT 9999 BKN150/// BKN210/// 07/03 Q1020 BLU
  • 181825Z AUTO 20010KT 9999 BKN190/// 07/03 Q1020 BLU

TAF TAF EBDT
Valide du 18 à 13h jusqu'au 18 à 22h UTC


181141Z 1813/1822 23015G25KT 9999 FEW022 SCT030
TEMPO 1813/1822 23018G30KT 7000 -SHRA SCT018TCU BKN025
PROB30
TEMPO 1820/1822 4500 SHRA SCT014TCU BKN020



MET'MAP, la Météo Aéronautique d'un coup d'oeil ! - Copyright ORBIFLY Décembre 2007 - Disclaimer

ORBIFLY MET'MAP TEAM :

Programmation & Développement : Alexandra Zaïnal
Sur une idée originale de : Baudouin d'Aumeries
Assistance à la programmation : Marc-Olivier Méhu
Soutien technique & logistique : Manuel Goepfert

Contact : metmap@orbifly.com




SOURCES & CREDITS :

   NOAA